Time;durP1;ratioP1;P1;durP2;ratioP2;P2;SDS_P1;SDS_P2;PMS_P1;PMS_P2;Temp;Humidity;BMP_temperature;BMP_pressure;BME280_temperature;BME280_humidity;BME280_pressure;Samples;Min_cycle;Max_cycle;Signal;HPM_P1;HPM_P2
2021/06/22 00:00:17;;;;;;;1.30;1.20;;;26.50;75.40;;;;;;5014171;28;20447;-86
2021/06/22 00:02:46;;;;;;;1.23;1.13;;;26.50;75.40;;;;;;5014304;28;20498;-86
2021/06/22 00:05:13;;;;;;;1.20;1.10;;;26.50;75.40;;;;;;5013726;28;20542;-87
2021/06/22 00:07:41;;;;;;;1.20;1.10;;;26.50;75.30;;;;;;5013937;28;20450;-86
2021/06/22 00:10:10;;;;;;;1.40;1.10;;;26.70;75.60;;;;;;5013945;28;20447;-86
2021/06/22 00:12:36;;;;;;;1.30;1.20;;;26.50;75.30;;;;;;5014159;28;20443;-87
2021/06/22 00:15:04;;;;;;;1.93;1.00;;;26.50;75.20;;;;;;5013930;28;20447;-87
2021/06/22 00:17:31;;;;;;;1.20;1.03;;;26.50;75.30;;;;;;5013978;28;20443;-86
2021/06/22 00:19:58;;;;;;;1.10;1.00;;;26.50;75.30;;;;;;5014197;28;20464;-86
2021/06/22 00:22:25;;;;;;;1.10;1.00;;;26.60;75.30;;;;;;5014145;28;20490;-87
2021/06/22 00:24:53;;;;;;;1.20;1.10;;;26.50;75.20;;;;;;5014308;28;20432;-87
2021/06/22 00:27:19;;;;;;;1.63;1.23;;;26.50;75.20;;;;;;5013854;28;20935;-87
2021/06/22 00:29:49;;;;;;;1.20;1.00;;;26.50;75.30;;;;;;5013995;28;20438;-87
2021/06/22 00:32:16;;;;;;;1.10;1.00;;;26.50;75.30;;;;;;5013805;28;20446;-87
2021/06/22 00:34:44;;;;;;;1.53;0.93;;;26.50;75.20;;;;;;5013781;28;20456;-87
2021/06/22 00:37:11;;;;;;;1.10;1.00;;;26.50;75.20;;;;;;5014035;28;20458;-87
2021/06/22 00:39:38;;;;;;;1.40;1.30;;;26.60;75.30;;;;;;5013615;28;20481;-87
2021/06/22 00:42:07;;;;;;;1.27;1.17;;;26.60;75.30;;;;;;5013892;28;20847;-87
2021/06/22 00:44:43;;;;;;;1.17;1.00;;;26.50;75.30;;;;;;5014358;28;20443;-87
2021/06/22 00:47:10;;;;;;;1.20;1.10;;;26.50;75.40;;;;;;5013753;28;20934;-87
2021/06/22 00:49:37;;;;;;;1.43;1.33;;;26.40;75.30;;;;;;5013932;28;20470;-87
2021/06/22 00:52:04;;;;;;;1.30;1.20;;;26.40;75.20;;;;;;5014059;28;20441;-86
2021/06/22 00:54:31;;;;;;;1.10;1.00;;;26.40;75.20;;;;;;5013944;28;20443;-86
2021/06/22 00:56:58;;;;;;;1.20;0.90;;;26.40;75.30;;;;;;5014131;28;20439;-87
2021/06/22 00:59:30;;;;;;;1.60;1.17;;;26.40;75.30;;;;;;5028161;28;20438;-87
2021/06/22 01:01:57;;;;;;;1.20;1.00;;;26.40;75.30;;;;;;5030036;28;20489;-87
2021/06/22 01:04:24;;;;;;;1.23;1.13;;;26.40;75.30;;;;;;5031308;28;20427;-84
2021/06/22 01:06:51;;;;;;;1.63;1.10;;;26.40;75.30;;;;;;5021002;28;20439;-86
2021/06/22 01:09:17;;;;;;;1.20;1.10;;;26.40;75.20;;;;;;5015971;28;20447;-87
2021/06/22 01:11:44;;;;;;;1.30;1.20;;;26.40;75.20;;;;;;5015565;28;20435;-86
2021/06/22 01:14:11;;;;;;;1.67;1.30;;;26.40;75.20;;;;;;5014078;28;20447;-87
2021/06/22 01:16:39;;;;;;;1.40;1.27;;;26.40;75.30;;;;;;5014234;28;20434;-86
2021/06/22 01:19:08;;;;;;;1.30;1.20;;;26.40;75.30;;;;;;5017624;28;20466;-86
2021/06/22 01:21:37;;;;;;;1.30;1.20;;;26.40;75.20;;;;;;5017022;28;20487;-86
2021/06/22 01:24:06;;;;;;;1.30;1.20;;;26.40;76.20;;;;;;5017189;28;20458;-87
2021/06/22 01:26:33;;;;;;;1.20;1.10;;;26.40;75.20;;;;;;5017338;28;20522;-87
2021/06/22 01:28:59;;;;;;;1.20;1.10;;;26.40;75.20;;;;;;5017183;28;20447;-87
2021/06/22 01:31:26;;;;;;;1.00;0.90;;;26.40;75.20;;;;;;5017311;28;20454;-86
2021/06/22 01:33:53;;;;;;;1.20;1.00;;;26.40;75.20;;;;;;5017261;28;20450;-87
2021/06/22 01:36:22;;;;;;;1.63;1.00;;;26.40;75.10;;;;;;5017624;28;20521;-87
2021/06/22 01:38:50;;;;;;;1.10;0.90;;;26.40;75.10;;;;;;5017423;28;20565;-87
2021/06/22 01:41:17;;;;;;;1.10;0.83;;;26.50;75.20;;;;;;5017433;28;20441;-87
2021/06/22 01:43:44;;;;;;;1.27;0.97;;;26.40;75.10;;;;;;5017563;28;20454;-87
2021/06/22 01:46:11;;;;;;;1.20;1.00;;;26.40;75.20;;;;;;5017361;28;20446;-87
2021/06/22 01:48:37;;;;;;;1.33;1.23;;;26.40;75.10;;;;;;5017673;28;20466;-87
2021/06/22 01:51:05;;;;;;;1.63;1.30;;;26.50;75.20;;;;;;5017586;28;20450;-87
2021/06/22 01:53:32;;;;;;;1.20;1.10;;;26.40;75.20;;;;;;5017853;28;20449;-87
2021/06/22 01:56:00;;;;;;;1.20;1.07;;;26.40;75.10;;;;;;5018500;28;20443;-87
2021/06/22 01:58:27;;;;;;;1.20;1.10;;;26.40;75.20;;;;;;5018681;28;20549;-87
2021/06/22 02:00:56;;;;;;;1.20;1.10;;;26.40;75.30;;;;;;5016409;28;20506;-87
2021/06/22 02:03:26;;;;;;;1.37;1.20;;;26.40;75.20;;;;;;5016396;28;20493;-87
2021/06/22 02:05:53;;;;;;;1.40;1.30;;;26.50;75.40;;;;;;5016740;28;20775;-87
2021/06/22 02:08:20;;;;;;;1.20;0.90;;;26.40;75.10;;;;;;5016275;28;20443;-87
2021/06/22 02:10:48;;;;;;;1.50;1.10;;;26.40;75.20;;;;;;5016389;28;20443;-87
2021/06/22 02:13:16;;;;;;;2.33;1.37;;;26.40;75.20;;;;;;5016192;28;20526;-87
2021/06/22 02:15:43;;;;;;;1.20;1.10;;;26.40;75.20;;;;;;5016151;28;20439;-87
2021/06/22 02:18:11;;;;;;;1.13;0.80;;;26.40;75.20;;;;;;5015904;28;20472;-87
2021/06/22 02:20:39;;;;;;;1.30;1.00;;;26.40;75.20;;;;;;5016267;28;20442;-87
2021/06/22 02:23:06;;;;;;;3.10;1.10;;;26.50;75.30;;;;;;4998632;28;20537;-87
2021/06/22 02:25:33;;;;;;;1.20;1.10;;;26.40;75.20;;;;;;5016072;28;20453;-87
2021/06/22 02:28:05;;;;;;;1.20;1.03;;;26.40;75.20;;;;;;5015502;28;20453;-87
2021/06/22 02:30:35;;;;;;;1.30;1.20;;;26.40;75.20;;;;;;5016037;28;20472;-87
2021/06/22 02:33:02;;;;;;;1.40;1.30;;;26.40;75.20;;;;;;5015984;28;20818;-87
2021/06/22 02:35:29;;;;;;;2.10;1.30;;;26.40;75.20;;;;;;5015941;28;20452;-87
2021/06/22 02:37:55;;;;;;;3.93;1.20;;;26.40;75.20;;;;;;5013577;28;20469;-87
2021/06/22 02:40:24;;;;;;;1.20;1.10;;;26.40;75.20;;;;;;5015658;28;20473;-87
2021/06/22 02:42:51;;;;;;;1.60;1.40;;;26.30;75.10;;;;;;5015357;28;20581;-86
2021/06/22 02:45:18;;;;;;;1.30;1.20;;;26.30;75.30;;;;;;5015626;28;20448;-87
2021/06/22 02:47:47;;;;;;;1.10;0.90;;;26.40;75.30;;;;;;5015414;28;20446;-87
2021/06/22 02:50:16;;;;;;;1.37;1.27;;;26.30;75.20;;;;;;5015558;28;20458;-87
2021/06/22 02:52:43;;;;;;;1.47;1.37;;;26.30;75.20;;;;;;5015561;28;20462;-87
2021/06/22 02:55:18;;;;;;;1.20;1.10;;;26.30;75.40;;;;;;5015155;28;20446;-87
2021/06/22 02:57:46;;;;;;;2.70;1.50;;;26.30;75.10;;;;;;5015232;28;20497;-87
2021/06/22 03:00:15;;;;;;;1.17;1.07;;;26.30;75.30;;;;;;5015385;28;20450;-87
2021/06/22 03:02:41;;;;;;;1.50;1.13;;;26.30;75.20;;;;;;5015362;28;20490;-87
2021/06/22 03:05:11;;;;;;;1.20;1.10;;;26.30;75.40;;;;;;5015669;28;20447;-87
2021/06/22 03:07:38;;;;;;;1.07;0.97;;;26.30;75.30;;;;;;5015138;28;20446;-87
2021/06/22 03:10:06;;;;;;;1.30;1.20;;;26.30;75.20;;;;;;5015169;28;20447;-87
2021/06/22 03:12:33;;;;;;;1.20;1.10;;;26.30;75.40;;;;;;5015265;28;20443;-87
2021/06/22 03:15:00;;;;;;;3.00;1.23;;;26.30;75.40;;;;;;5014934;28;20449;-87
2021/06/22 03:17:27;;;;;;;1.20;1.10;;;26.30;75.30;;;;;;5014935;28;20443;-87
2021/06/22 03:19:54;;;;;;;1.30;1.10;;;26.30;75.20;;;;;;5014867;28;20467;-87
2021/06/22 03:22:22;;;;;;;1.47;1.37;;;26.30;75.40;;;;;;5015015;28;20475;-87
2021/06/22 03:24:48;;;;;;;1.27;1.17;;;26.40;75.70;;;;;;5015033;28;20930;-87
2021/06/22 03:27:15;;;;;;;3.93;1.10;;;26.30;75.30;;;;;;5014690;28;20960;-87
2021/06/22 03:29:42;;;;;;;1.40;1.17;;;26.30;75.40;;;;;;5014755;28;20942;-87
2021/06/22 03:32:09;;;;;;;1.30;1.20;;;26.30;75.40;;;;;;5014950;28;20449;-87
2021/06/22 03:34:36;;;;;;;1.20;1.10;;;26.30;75.40;;;;;;5014655;28;20453;-87
2021/06/22 03:37:03;;;;;;;1.90;1.10;;;26.30;75.00;;;;;;5014620;28;20450;-87
2021/06/22 03:39:32;;;;;;;1.60;1.20;;;26.30;75.00;;;;;;5013870;28;20478;-87
2021/06/22 03:41:59;;;;;;;1.40;1.30;;;26.30;75.30;;;;;;5014625;28;20812;-87
2021/06/22 03:44:25;;;;;;;1.10;1.00;;;26.40;75.20;;;;;;5014536;28;20447;-87
2021/06/22 03:46:52;;;;;;;1.20;1.10;;;26.30;75.20;;;;;;5014352;28;20446;-87
2021/06/22 03:49:19;;;;;;;1.73;1.10;;;26.50;76.30;;;;;;5014319;28;20993;-87
2021/06/22 03:51:48;;;;;;;1.30;1.20;;;26.30;75.20;;;;;;5014290;28;20443;-87
2021/06/22 03:54:15;;;;;;;1.33;1.23;;;26.30;75.30;;;;;;5014366;28;20770;-87
2021/06/22 03:56:43;;;;;;;2.63;1.23;;;26.30;75.20;;;;;;5014235;28;20450;-87
2021/06/22 03:59:10;;;;;;;1.60;1.50;;;26.30;75.00;;;;;;4999413;28;20444;-87
2021/06/22 04:01:37;;;;;;;2.43;1.57;;;26.30;75.00;;;;;;4994886;28;20438;-87
2021/06/22 04:04:04;;;;;;;1.60;1.50;;;26.30;74.70;;;;;;4994538;28;20498;-87
2021/06/22 04:06:30;;;;;;;1.40;1.23;;;26.30;74.40;;;;;;4994607;28;20957;-87
2021/06/22 04:08:57;;;;;;;1.50;1.40;;;26.30;74.70;;;;;;4994913;28;20479;-87
2021/06/22 04:11:25;;;;;;;1.60;1.50;;;26.20;74.60;;;;;;4994830;28;20444;-87
2021/06/22 04:13:53;;;;;;;1.40;1.30;;;26.30;74.70;;;;;;4994697;28;20462;-87
2021/06/22 04:16:19;;;;;;;1.60;1.47;;;26.30;74.70;;;;;;4995095;28;20444;-87
2021/06/22 04:18:46;;;;;;;1.60;1.50;;;26.30;74.70;;;;;;4994239;28;20463;-87
2021/06/22 04:21:13;;;;;;;1.40;1.30;;;26.30;74.80;;;;;;4994610;28;20452;-87
2021/06/22 04:23:40;;;;;;;1.60;1.20;;;26.30;74.70;;;;;;4994530;28;20497;-87
2021/06/22 04:26:06;;;;;;;1.33;1.23;;;26.30;74.70;;;;;;4994623;28;20440;-87
2021/06/22 04:28:33;;;;;;;1.60;1.50;;;26.30;74.60;;;;;;4994658;28;20451;-87
2021/06/22 04:31:01;;;;;;;1.60;1.50;;;26.30;74.70;;;;;;4994453;28;20443;-87
2021/06/22 04:33:28;;;;;;;2.83;1.40;;;26.30;74.70;;;;;;4994672;28;20812;-87
2021/06/22 04:35:55;;;;;;;1.60;1.50;;;26.30;74.70;;;;;;4977455;28;20820;-87
2021/06/22 04:38:22;;;;;;;1.30;1.20;;;26.30;74.70;;;;;;4994280;28;20474;-87
2021/06/22 04:40:49;;;;;;;1.50;1.40;;;26.30;74.70;;;;;;4994426;28;20447;-87
2021/06/22 04:43:16;;;;;;;1.40;1.30;;;26.30;74.60;;;;;;4994242;28;20489;-87
2021/06/22 04:45:42;;;;;;;1.73;1.63;;;26.30;74.60;;;;;;4994310;28;20453;-87
2021/06/22 04:48:11;;;;;;;1.47;1.37;;;26.30;74.60;;;;;;4994208;28;20466;-87
2021/06/22 04:50:37;;;;;;;1.50;1.40;;;26.30;74.50;;;;;;4995390;28;20448;-87
2021/06/22 04:53:04;;;;;;;1.60;1.50;;;26.30;74.40;;;;;;4997906;28;20451;-87
2021/06/22 04:55:31;;;;;;;1.60;1.20;;;26.30;74.30;;;;;;4998243;28;20447;-87
2021/06/22 04:57:59;;;;;;;1.63;1.53;;;26.30;74.20;;;;;;4998366;28;20457;-87
2021/06/22 05:00:28;;;;;;;1.40;1.20;;;26.40;74.20;;;;;;4980931;28;20451;-87
2021/06/22 05:02:55;;;;;;;2.10;1.40;;;26.40;74.20;;;;;;4981056;28;20850;-87
2021/06/22 05:05:25;;;;;;;1.57;1.47;;;26.30;74.10;;;;;;4998751;28;20444;-87
2021/06/22 05:07:52;;;;;;;1.73;1.63;;;26.30;74.00;;;;;;4981488;28;21036;-87
2021/06/22 05:10:18;;;;;;;1.60;1.50;;;26.30;74.00;;;;;;4998779;28;20452;-87
2021/06/22 05:12:46;;;;;;;2.47;1.50;;;26.40;74.00;;;;;;4998663;28;20488;-87
2021/06/22 05:15:14;;;;;;;1.77;1.30;;;26.30;73.90;;;;;;5000255;28;20927;-87
2021/06/22 05:17:40;;;;;;;1.80;1.50;;;26.30;73.80;;;;;;5000305;28;20515;-87
2021/06/22 05:20:08;;;;;;;1.83;1.33;;;26.30;73.70;;;;;;4997685;28;20436;-87
2021/06/22 05:22:36;;;;;;;1.60;1.50;;;26.30;73.60;;;;;;4997375;28;20440;-87
2021/06/22 05:25:04;;;;;;;1.80;1.70;;;26.30;73.80;;;;;;4997609;28;20874;-87
2021/06/22 05:27:31;;;;;;;2.13;1.77;;;26.30;73.50;;;;;;4997533;28;20813;-87
2021/06/22 05:29:58;;;;;;;2.30;1.80;;;26.40;73.60;;;;;;4997416;28;20440;-87
2021/06/22 05:32:25;;;;;;;2.67;1.80;;;26.30;73.30;;;;;;4997411;28;20447;-87
2021/06/22 05:34:51;;;;;;;2.67;1.50;;;26.30;73.50;;;;;;4997504;28;20440;-87
2021/06/22 05:37:20;;;;;;;2.63;1.77;;;26.30;73.30;;;;;;4997727;28;20535;-87
2021/06/22 05:39:48;;;;;;;2.27;1.60;;;26.30;73.10;;;;;;4997539;28;20992;-87
2021/06/22 05:42:16;;;;;;;2.07;1.87;;;26.30;73.00;;;;;;4997488;28;20444;-87
2021/06/22 05:44:42;;;;;;;1.73;1.50;;;26.30;72.90;;;;;;5000675;28;20503;-87
2021/06/22 05:47:09;;;;;;;2.73;1.70;;;26.40;73.10;;;;;;5005882;28;20512;-87
2021/06/22 05:49:38;;;;;;;1.63;1.53;;;26.30;73.00;;;;;;5005439;28;20467;-87
2021/06/22 05:52:05;;;;;;;1.63;1.53;;;26.30;73.00;;;;;;5007999;28;20453;-87
2021/06/22 05:54:32;;;;;;;3.10;1.50;;;26.30;72.90;;;;;;5002982;28;20443;-87
2021/06/22 05:57:00;;;;;;;2.10;1.67;;;26.30;72.90;;;;;;4983893;28;20449;-86
2021/06/22 05:59:26;;;;;;;2.53;1.80;;;26.30;72.90;;;;;;4998267;28;20439;-87
2021/06/22 06:01:53;;;;;;;2.47;1.43;;;26.30;73.00;;;;;;4980053;28;20440;-86
2021/06/22 06:04:20;;;;;;;1.60;1.50;;;26.30;73.10;;;;;;4997060;28;21006;-87
2021/06/22 06:06:47;;;;;;;1.83;1.40;;;26.40;73.30;;;;;;4997264;28;20463;-87
2021/06/22 06:09:15;;;;;;;1.93;1.47;;;26.30;73.10;;;;;;4998019;28;20962;-86
2021/06/22 06:11:41;;;;;;;3.43;1.70;;;26.30;73.10;;;;;;4997234;28;20513;-87
2021/06/22 06:14:10;;;;;;;1.70;1.57;;;26.30;73.20;;;;;;4997061;28;20439;-87
2021/06/22 06:16:37;;;;;;;2.13;1.40;;;26.30;73.10;;;;;;4996505;28;20444;-87
2021/06/22 06:19:04;;;;;;;1.37;1.27;;;26.30;73.10;;;;;;4979394;28;20471;-87
2021/06/22 06:21:30;;;;;;;2.00;1.90;;;26.30;73.10;;;;;;4996765;28;20444;-87
2021/06/22 06:23:58;;;;;;;1.67;1.57;;;26.30;73.20;;;;;;4996386;28;20994;-87
2021/06/22 06:26:26;;;;;;;2.70;1.50;;;26.30;73.20;;;;;;4996508;28;20486;-87
2021/06/22 06:28:57;;;;;;;2.20;1.67;;;26.30;73.20;;;;;;4996741;28;20437;-87
2021/06/22 06:31:25;;;;;;;1.70;1.30;;;26.40;73.30;;;;;;4997545;28;20576;-87
2021/06/22 06:33:53;;;;;;;2.27;1.87;;;26.40;73.30;;;;;;5015243;28;20435;-87
2021/06/22 06:36:19;;;;;;;3.73;2.47;;;26.40;73.40;;;;;;5016780;28;20500;-88
2021/06/22 06:38:46;;;;;;;4.10;2.63;;;26.30;71.10;;;;;;5015713;28;20470;-88
2021/06/22 06:41:13;;;;;;;5.97;2.90;;;26.40;68.00;;;;;;5015567;28;20446;-87
2021/06/22 06:43:40;;;;;;;5.93;4.20;;;26.00;67.20;;;;;;5018743;28;20482;-87
2021/06/22 06:46:06;;;;;;;5.30;3.13;;;25.80;67.00;;;;;;5017650;28;20951;-88
2021/06/22 06:48:34;;;;;;;5.83;3.30;;;25.70;67.10;;;;;;5015218;28;20478;-86
2021/06/22 06:51:03;;;;;;;4.90;3.20;;;25.50;67.40;;;;;;5015609;28;20442;-88
2021/06/22 06:53:30;;;;;;;3.20;2.67;;;25.40;68.40;;;;;;5015126;28;20536;-88
2021/06/22 06:55:57;;;;;;;4.27;2.80;;;25.30;67.90;;;;;;5015023;28;20452;-87
2021/06/22 06:58:24;;;;;;;9.40;2.83;;;25.20;68.00;;;;;;5015133;28;20929;-87
2021/06/22 07:00:51;;;;;;;6.40;2.67;;;25.10;68.30;;;;;;5015287;28;20452;-87
2021/06/22 07:03:17;;;;;;;4.37;2.37;;;25.20;68.90;;;;;;5015150;28;20488;-87
2021/06/22 07:05:45;;;;;;;4.60;2.43;;;25.40;69.40;;;;;;5015192;28;20943;-87
2021/06/22 07:08:12;;;;;;;3.60;2.73;;;25.30;69.60;;;;;;5015209;28;20820;-87
2021/06/22 07:10:41;;;;;;;2.87;2.10;;;25.40;70.20;;;;;;5015039;28;20443;-86
2021/06/22 07:13:13;;;;;;;3.80;2.43;;;25.60;70.50;;;;;;5015161;28;20833;-88
2021/06/22 07:15:40;;;;;;;6.37;2.47;;;25.60;70.70;;;;;;5014230;28;20544;-87
2021/06/22 07:18:07;;;;;;;3.93;2.37;;;25.50;70.70;;;;;;5014961;28;20470;-88
2021/06/22 07:20:34;;;;;;;2.63;2.10;;;25.60;70.60;;;;;;5015191;28;20444;-88
2021/06/22 07:23:03;;;;;;;5.17;2.03;;;25.80;70.90;;;;;;5015105;28;20804;-87
2021/06/22 07:25:30;;;;;;;5.00;3.00;;;25.70;70.70;;;;;;5015495;28;20809;-88
2021/06/22 07:27:57;;;;;;;7.37;2.67;;;25.80;70.80;;;;;;5015055;28;20444;-87
2021/06/22 07:30:28;;;;;;;3.60;2.30;;;25.80;70.80;;;;;;5015109;28;20449;-88
2021/06/22 07:32:56;;;;;;;3.30;2.40;;;25.90;70.80;;;;;;5015015;28;20437;-87
2021/06/22 07:35:24;;;;;;;4.40;2.40;;;25.90;70.70;;;;;;5014723;28;20964;-87
2021/06/22 07:37:51;;;;;;;3.53;2.30;;;26.00;71.50;;;;;;5014729;28;20787;-88
2021/06/22 07:40:20;;;;;;;4.70;2.10;;;26.10;70.70;;;;;;5014212;28;20841;-88
2021/06/22 07:42:47;;;;;;;3.90;2.20;;;26.00;70.60;;;;;;5014767;28;20442;-88
2021/06/22 07:45:14;;;;;;;2.63;2.43;;;26.10;70.70;;;;;;5014775;28;20493;-87
2021/06/22 07:47:41;;;;;;;2.70;2.20;;;26.00;70.60;;;;;;5014156;28;20471;-91
2021/06/22 07:50:10;;;;;;;7.90;2.60;;;26.10;70.60;;;;;;5014496;28;20525;-87
2021/06/22 07:52:37;;;;;;;2.37;1.93;;;26.10;71.40;;;;;;5014339;28;20456;-89
2021/06/22 07:55:05;;;;;;;6.23;2.77;;;26.10;70.40;;;;;;5014685;28;20509;-92
2021/06/22 07:57:33;;;;;;;6.40;2.90;;;26.00;67.80;;;;;;5014735;28;20451;-87
2021/06/22 08:00:05;;;;;;;4.60;3.13;;;26.00;65.90;;;;;;5014207;28;20442;-90
2021/06/22 08:02:31;;;;;;;8.53;3.00;;;25.80;65.80;;;;;;5014958;28;20791;-88
2021/06/22 08:04:58;;;;;;;7.73;3.60;;;25.60;65.70;;;;;;5014989;28;20489;-89
2021/06/22 08:07:25;;;;;;;5.73;3.37;;;25.50;66.00;;;;;;5015365;28;20544;-92
2021/06/22 08:09:51;;;;;;;6.10;3.47;;;25.50;66.60;;;;;;5014905;28;20450;-90
2021/06/22 08:12:18;;;;;;;5.90;3.20;;;25.40;67.20;;;;;;5014589;28;20457;-95
2021/06/22 08:14:46;;;;;;;7.17;3.10;;;25.40;67.40;;;;;;5015567;28;20449;-87
2021/06/22 08:17:13;;;;;;;3.83;2.50;;;25.30;66.90;;;;;;5013864;28;20451;-86
2021/06/22 08:19:40;;;;;;;3.60;3.30;;;25.20;66.90;;;;;;5014283;28;20456;-89
2021/06/22 08:22:06;;;;;;;5.73;2.60;;;25.30;67.60;;;;;;5014109;28;20445;-88
2021/06/22 08:24:33;;;;;;;3.00;2.77;;;25.20;67.90;;;;;;5014526;28;20588;-90
2021/06/22 08:27:00;;;;;;;5.73;3.17;;;25.30;68.20;;;;;;5015383;28;20449;-96
2021/06/22 08:29:27;;;;;;;5.33;3.47;;;25.20;67.80;;;;;;5014772;28;20544;-88
2021/06/22 08:32:05;;;;;;;6.73;2.93;;;25.10;68.50;;;;;;5018015;28;20447;-95
2021/06/22 08:34:32;;;;;;;5.00;3.47;;;25.20;68.00;;;;;;5014402;28;20500;-88
2021/06/22 08:36:59;;;;;;;7.37;2.77;;;25.10;67.60;;;;;;5014553;28;20441;-86
2021/06/22 08:39:26;;;;;;;7.70;2.63;;;25.10;67.50;;;;;;5006722;28;20480;-90
2021/06/22 08:41:54;;;;;;;5.47;2.50;;;25.10;67.90;;;;;;4994897;28;20457;-88
2021/06/22 08:44:24;;;;;;;4.17;2.20;;;25.40;68.30;;;;;;5004495;28;20486;-87
2021/06/22 08:46:51;;;;;;;3.53;2.43;;;25.20;68.10;;;;;;5007454;28;20449;-95
2021/06/22 08:49:20;;;;;;;7.50;3.00;;;25.30;68.70;;;;;;5015313;28;20468;-87
2021/06/22 08:51:48;;;;;;;5.63;2.20;;;25.30;69.00;;;;;;5008865;28;20596;-88
2021/06/22 08:54:14;;;;;;;9.53;2.43;;;25.40;69.20;;;;;;5009146;28;20449;-87
2021/06/22 08:56:41;;;;;;;5.43;2.40;;;25.50;69.30;;;;;;5013727;28;20456;-89
2021/06/22 08:59:08;;;;;;;10.50;2.30;;;25.50;69.40;;;;;;5013786;28;20449;-92
2021/06/22 09:01:35;;;;;;;5.70;2.17;;;25.50;69.50;;;;;;5013978;28;20457;-89
2021/06/22 09:04:02;;;;;;;5.07;3.23;;;25.60;69.60;;;;;;5013601;28;20475;-86
2021/06/22 09:06:39;;;;;;;4.23;1.83;;;25.60;69.70;;;;;;5013834;28;20802;-88
2021/06/22 09:09:08;;;;;;;2.43;2.17;;;25.70;69.80;;;;;;5013654;28;20485;-87
2021/06/22 09:11:35;;;;;;;5.30;2.20;;;25.90;70.00;;;;;;5022829;28;20435;-93
2021/06/22 09:14:05;;;;;;;5.27;2.17;;;25.80;69.80;;;;;;5024763;28;20433;-96
2021/06/22 09:16:32;;;;;;;6.10;2.50;;;25.80;69.90;;;;;;5014134;28;20452;-88
2021/06/22 09:19:02;;;;;;;2.57;1.97;;;25.80;69.90;;;;;;5011016;28;20469;-85
2021/06/22 09:21:39;;;;;;;5.53;1.90;;;25.90;70.00;;;;;;5013628;28;20434;-86
2021/06/22 09:24:16;;;;;;;3.33;2.43;;;25.90;68.50;;;;;;5013410;28;20984;-85
2021/06/22 09:26:45;;;;;;;3.50;2.00;;;25.90;68.50;;;;;;5013526;28;20500;-85
2021/06/22 09:29:14;;;;;;;3.53;2.10;;;25.90;69.30;;;;;;5013173;28;20442;-90
2021/06/22 09:31:50;;;;;;;2.53;2.00;;;25.90;69.40;;;;;;5013377;28;20443;-86
2021/06/22 09:34:19;;;;;;;2.77;2.00;;;25.90;69.50;;;;;;5013480;28;20805;-86
2021/06/22 09:36:52;;;;;;;2.40;1.73;;;25.90;69.60;;;;;;5013344;28;20443;-86
2021/06/22 09:39:21;;;;;;;3.30;1.90;;;25.90;69.60;;;;;;5016370;28;20477;-86
2021/06/22 09:41:49;;;;;;;3.07;1.80;;;25.90;69.50;;;;;;5016482;28;20817;-89
2021/06/22 09:44:18;;;;;;;4.27;1.93;;;25.90;69.60;;;;;;5016762;28;20989;-87
2021/06/22 09:46:46;;;;;;;2.63;1.87;;;26.00;69.50;;;;;;5016540;28;20470;-86
2021/06/22 09:49:22;;;;;;;2.60;2.10;;;26.00;69.40;;;;;;5016561;28;20463;-85
2021/06/22 09:54:27;;;;;;;4.03;2.30;;;26.00;69.30;;;;;;898282;23;20760;-89
2021/06/22 09:56:59;;;;;;;2.97;1.77;;;26.00;69.30;;;;;;4997910;28;20452;-86
2021/06/22 09:59:27;;;;;;;6.07;1.43;;;26.00;69.30;;;;;;4997011;28;21011;-85
2021/06/22 10:02:01;;;;;;;3.93;2.10;;;26.00;69.40;;;;;;4997069;28;20447;-85
2021/06/22 10:04:28;;;;;;;3.10;1.80;;;26.00;69.30;;;;;;4997672;28;21017;-86
2021/06/22 10:06:57;;;;;;;6.67;2.23;;;26.20;69.60;;;;;;4996806;28;20448;-86
2021/06/22 10:09:28;;;;;;;4.10;1.93;;;26.00;68.90;;;;;;4997200;28;20795;-87
2021/06/22 10:12:05;;;;;;;4.37;1.97;;;26.10;68.30;;;;;;4995588;28;20451;-87
2021/06/22 10:14:34;;;;;;;4.93;2.40;;;26.00;68.80;;;;;;4997566;28;20804;-95
